sensor_id;sensor_type;location;lat;lon;timestamp;pressure;altitude;pressure_sealevel;temperature;humidity
7824;BME280;3957;48.61947800;9.05303100;2022-07-06T00:01:13;96672.13;;;14.78;73.59
7824;BME280;3957;48.61947800;9.05303100;2022-07-06T00:02:34;96683.91;;;14.84;72.80
7824;BME280;3957;48.61947800;9.05303100;2022-07-06T00:03:54;96680.56;;;14.82;73.01
7824;BME280;3957;48.61947800;9.05303100;2022-07-06T00:05:15;96679.16;;;14.79;73.29
7824;BME280;3957;48.61947800;9.05303100;2022-07-06T00:06:36;96683.25;;;14.82;73.32
7824;BME280;3957;48.61947800;9.05303100;2022-07-06T00:07:57;96676.47;;;14.79;73.19
7824;BME280;3957;48.61947800;9.05303100;2022-07-06T00:09:18;96673.78;;;14.79;72.94
7824;BME280;3957;48.61947800;9.05303100;2022-07-06T00:10:39;96675.25;;;14.75;73.23
7824;BME280;3957;48.61947800;9.05303100;2022-07-06T00:12:00;96678.94;;;14.81;72.96
7824;BME280;3957;48.61947800;9.05303100;2022-07-06T00:13:21;96681.78;;;14.86;72.67
7824;BME280;3957;48.61947800;9.05303100;2022-07-06T00:14:41;96677.47;;;14.85;72.43
7824;BME280;3957;48.61947800;9.05303100;2022-07-06T00:16:02;96673.72;;;14.86;72.53
7824;BME280;3957;48.61947800;9.05303100;2022-07-06T00:17:23;96672.09;;;14.85;72.21
7824;BME280;3957;48.61947800;9.05303100;2022-07-06T00:18:45;96672.09;;;14.85;72.55
7824;BME280;3957;48.61947800;9.05303100;2022-07-06T00:20:06;96676.00;;;14.89;71.97
7824;BME280;3957;48.61947800;9.05303100;2022-07-06T00:21:27;96673.50;;;14.87;72.58
7824;BME280;3957;48.61947800;9.05303100;2022-07-06T00:22:47;96677.63;;;14.90;72.25
7824;BME280;3957;48.61947800;9.05303100;2022-07-06T00:24:08;96663.53;;;14.94;71.62
7824;BME280;3957;48.61947800;9.05303100;2022-07-06T00:25:29;96670.16;;;14.92;71.74
7824;BME280;3957;48.61947800;9.05303100;2022-07-06T00:26:50;96667.69;;;14.90;71.88
7824;BME280;3957;48.61947800;9.05303100;2022-07-06T00:28:11;96669.75;;;14.88;72.28
7824;BME280;3957;48.61947800;9.05303100;2022-07-06T00:29:31;96672.69;;;14.87;72.63
7824;BME280;3957;48.61947800;9.05303100;2022-07-06T00:30:53;96671.00;;;14.86;72.27
7824;BME280;3957;48.61947800;9.05303100;2022-07-06T00:32:14;96670.38;;;14.90;71.87
7824;BME280;3957;48.61947800;9.05303100;2022-07-06T00:33:36;96681.16;;;14.90;71.62
7824;BME280;3957;48.61947800;9.05303100;2022-07-06T00:34:57;96674.34;;;14.88;72.07
7824;BME280;3957;48.61947800;9.05303100;2022-07-06T00:36:18;96673.50;;;14.87;72.15
7824;BME280;3957;48.61947800;9.05303100;2022-07-06T00:37:38;96678.69;;;14.89;72.61
7824;BME280;3957;48.61947800;9.05303100;2022-07-06T00:38:59;96678.06;;;14.87;72.39
7824;BME280;3957;48.61947800;9.05303100;2022-07-06T00:40:20;96675.38;;;14.87;73.12
7824;BME280;3957;48.61947800;9.05303100;2022-07-06T00:41:41;96668.53;;;14.84;73.29
7824;BME280;3957;48.61947800;9.05303100;2022-07-06T00:43:02;96669.78;;;14.82;73.22
7824;BME280;3957;48.61947800;9.05303100;2022-07-06T00:44:23;96665.47;;;14.81;73.66
7824;BME280;3957;48.61947800;9.05303100;2022-07-06T00:45:44;96670.69;;;14.75;73.62
7824;BME280;3957;48.61947800;9.05303100;2022-07-06T00:47:05;96667.56;;;14.72;74.15
7824;BME280;3957;48.61947800;9.05303100;2022-07-06T00:48:28;96669.66;;;14.70;74.70
7824;BME280;3957;48.61947800;9.05303100;2022-07-06T00:49:49;96668.22;;;14.67;74.49
7824;BME280;3957;48.61947800;9.05303100;2022-07-06T00:51:29;96665.72;;;14.72;73.05
7824;BME280;3957;48.61947800;9.05303100;2022-07-06T00:52:53;96670.72;;;14.69;74.40
7824;BME280;3957;48.61947800;9.05303100;2022-07-06T00:54:14;96667.19;;;14.68;75.09
7824;BME280;3957;48.61947800;9.05303100;2022-07-06T00:55:37;96671.34;;;14.71;73.61
7824;BME280;3957;48.61947800;9.05303100;2022-07-06T00:57:01;96669.25;;;14.66;74.59
7824;BME280;3957;48.61947800;9.05303100;2022-07-06T00:58:21;96669.88;;;14.61;75.47
7824;BME280;3957;48.61947800;9.05303100;2022-07-06T00:59:43;96669.69;;;14.63;74.75
7824;BME280;3957;48.61947800;9.05303100;2022-07-06T01:01:04;96667.00;;;14.63;75.25
7824;BME280;3957;48.61947800;9.05303100;2022-07-06T01:02:24;96667.19;;;14.61;73.12
7824;BME280;3957;48.61947800;9.05303100;2022-07-06T01:03:45;96665.13;;;14.57;74.21
7824;BME280;3957;48.61947800;9.05303100;2022-07-06T01:05:08;96666.59;;;14.53;75.75
7824;BME280;3957;48.61947800;9.05303100;2022-07-06T01:06:29;96670.16;;;14.46;75.72
7824;BME280;3957;48.61947800;9.05303100;2022-07-06T01:07:52;96662.94;;;14.40;76.04
7824;BME280;3957;48.61947800;9.05303100;2022-07-06T01:09:13;96664.19;;;14.38;76.20
7824;BME280;3957;48.61947800;9.05303100;2022-07-06T01:10:34;96670.63;;;14.37;73.62
7824;BME280;3957;48.61947800;9.05303100;2022-07-06T01:11:55;96671.44;;;14.37;74.06
7824;BME280;3957;48.61947800;9.05303100;2022-07-06T01:13:16;96673.50;;;14.42;73.88
7824;BME280;3957;48.61947800;9.05303100;2022-07-06T01:14:36;96666.06;;;14.37;73.57
7824;BME280;3957;48.61947800;9.05303100;2022-07-06T01:15:57;96667.72;;;14.38;73.09
7824;BME280;3957;48.61947800;9.05303100;2022-07-06T01:17:18;96668.16;;;14.35;73.51
7824;BME280;3957;48.61947800;9.05303100;2022-07-06T01:18:40;96668.97;;;14.36;72.98
7824;BME280;3957;48.61947800;9.05303100;2022-07-06T01:21:37;96666.91;;;14.38;72.75
7824;BME280;3957;48.61947800;9.05303100;2022-07-06T01:22:59;96665.22;;;14.37;73.69
7824;BME280;3957;48.61947800;9.05303100;2022-07-06T01:24:21;96660.88;;;14.36;74.15
7824;BME280;3957;48.61947800;9.05303100;2022-07-06T01:25:42;96660.75;;;14.24;75.86
7824;BME280;3957;48.61947800;9.05303100;2022-07-06T01:27:06;96666.75;;;14.19;75.73
7824;BME280;3957;48.61947800;9.05303100;2022-07-06T01:28:28;96663.25;;;14.19;75.88
7824;BME280;3957;48.61947800;9.05303100;2022-07-06T01:29:48;96656.38;;;14.23;74.88
7824;BME280;3957;48.61947800;9.05303100;2022-07-06T01:31:45;96659.53;;;14.13;75.66
7824;BME280;3957;48.61947800;9.05303100;2022-07-06T01:33:06;96658.31;;;14.09;76.71
7824;BME280;3957;48.61947800;9.05303100;2022-07-06T01:34:27;96657.66;;;14.07;76.68
7824;BME280;3957;48.61947800;9.05303100;2022-07-06T01:35:48;96664.13;;;14.06;76.65
7824;BME280;3957;48.61947800;9.05303100;2022-07-06T01:37:10;96662.44;;;14.11;74.89
7824;BME280;3957;48.61947800;9.05303100;2022-07-06T01:38:31;96655.81;;;14.07;75.93
7824;BME280;3957;48.61947800;9.05303100;2022-07-06T01:39:52;96655.41;;;14.10;74.21
7824;BME280;3957;48.61947800;9.05303100;2022-07-06T01:41:13;96653.94;;;14.15;73.79
7824;BME280;3957;48.61947800;9.05303100;2022-07-06T01:42:34;96655.59;;;14.16;73.91
7824;BME280;3957;48.61947800;9.05303100;2022-07-06T01:43:55;96663.03;;;14.14;73.86
7824;BME280;3957;48.61947800;9.05303100;2022-07-06T01:45:16;96656.84;;;14.13;73.65
7824;BME280;3957;48.61947800;9.05303100;2022-07-06T01:46:37;96657.22;;;14.17;73.02
7824;BME280;3957;48.61947800;9.05303100;2022-07-06T01:47:59;96659.53;;;14.13;72.41
7824;BME280;3957;48.61947800;9.05303100;2022-07-06T01:49:20;96655.41;;;14.10;73.48
7824;BME280;3957;48.61947800;9.05303100;2022-07-06T01:50:40;96662.44;;;14.05;73.32
7824;BME280;3957;48.61947800;9.05303100;2022-07-06T01:52:01;96661.59;;;14.04;73.13
7824;BME280;3957;48.61947800;9.05303100;2022-07-06T01:53:22;96664.13;;;13.99;73.30
7824;BME280;3957;48.61947800;9.05303100;2022-07-06T01:54:44;96665.97;;;13.99;73.53
7824;BME280;3957;48.61947800;9.05303100;2022-07-06T01:56:05;96666.19;;;13.90;74.28
7824;BME280;3957;48.61947800;9.05303100;2022-07-06T01:57:26;96666.41;;;13.89;74.04
7824;BME280;3957;48.61947800;9.05303100;2022-07-06T01:58:48;96669.72;;;13.91;73.55
7824;BME280;3957;48.61947800;9.05303100;2022-07-06T02:00:09;96667.25;;;13.89;73.94
7824;BME280;3957;48.61947800;9.05303100;2022-07-06T02:01:41;96666.19;;;13.90;74.43
7824;BME280;3957;48.61947800;9.05303100;2022-07-06T02:03:01;96666.84;;;13.92;74.37
7824;BME280;3957;48.61947800;9.05303100;2022-07-06T02:04:22;96665.81;;;13.93;74.24
7824;BME280;3957;48.61947800;9.05303100;2022-07-06T02:05:43;96669.53;;;13.86;74.36
7824;BME280;3957;48.61947800;9.05303100;2022-07-06T02:07:03;96674.69;;;13.87;74.29
7824;BME280;3957;48.61947800;9.05303100;2022-07-06T02:08:24;96667.47;;;13.81;74.70
7824;BME280;3957;48.61947800;9.05303100;2022-07-06T02:09:45;96671.00;;;13.82;74.84
7824;BME280;3957;48.61947800;9.05303100;2022-07-06T02:11:07;96669.31;;;13.81;74.77
7824;BME280;3957;48.61947800;9.05303100;2022-07-06T02:12:30;96670.38;;;13.80;74.52
7824;BME280;3957;48.61947800;9.05303100;2022-07-06T02:13:51;96664.38;;;13.84;74.47
7824;BME280;3957;48.61947800;9.05303100;2022-07-06T02:15:12;96654.84;;;13.82;74.57
7824;BME280;3957;48.61947800;9.05303100;2022-07-06T02:16:34;96660.88;;;13.77;75.12
7824;BME280;3957;48.61947800;9.05303100;2022-07-06T02:17:55;96660.88;;;13.84;74.70
7824;BME280;3957;48.61947800;9.05303100;2022-07-06T02:19:18;96663.56;;;13.77;74.72
7824;BME280;3957;48.61947800;9.05303100;2022-07-06T02:20:40;96663.94;;;13.74;74.54
7824;BME280;3957;48.61947800;9.05303100;2022-07-06T02:22:00;96665.00;;;13.73;74.86
7824;BME280;3957;48.61947800;9.05303100;2022-07-06T02:23:21;96659.84;;;13.71;75.53
7824;BME280;3957;48.61947800;9.05303100;2022-07-06T02:24:43;96662.13;;;13.68;75.29
7824;BME280;3957;48.61947800;9.05303100;2022-07-06T02:26:04;96670.41;;;13.66;75.63
7824;BME280;3957;48.61947800;9.05303100;2022-07-06T02:27:26;96659.22;;;13.69;75.85
7824;BME280;3957;48.61947800;9.05303100;2022-07-06T02:28:47;96668.94;;;13.70;75.35
7824;BME280;3957;48.61947800;9.05303100;2022-07-06T02:30:08;96665.03;;;13.66;76.46
7824;BME280;3957;48.61947800;9.05303100;2022-07-06T02:31:30;96674.53;;;13.62;76.13
7824;BME280;3957;48.61947800;9.05303100;2022-07-06T02:32:51;96668.53;;;13.60;75.84
7824;BME280;3957;48.61947800;9.05303100;2022-07-06T02:34:12;96674.75;;;13.60;76.10
7824;BME280;3957;48.61947800;9.05303100;2022-07-06T02:35:33;96672.06;;;13.60;75.76
7824;BME280;3957;48.61947800;9.05303100;2022-07-06T02:36:54;96665.44;;;13.56;77.06
7824;BME280;3957;48.61947800;9.05303100;2022-07-06T02:38:16;96669.97;;;13.56;76.94
7824;BME280;3957;48.61947800;9.05303100;2022-07-06T02:39:36;96676.41;;;13.55;77.24
7824;BME280;3957;48.61947800;9.05303100;2022-07-06T02:40:58;96673.72;;;13.55;76.65
7824;BME280;3957;48.61947800;9.05303100;2022-07-06T02:42:19;96671.84;;;13.55;76.82
7824;BME280;3957;48.61947800;9.05303100;2022-07-06T02:43:40;96671.63;;;13.57;76.87
7824;BME280;3957;48.61947800;9.05303100;2022-07-06T02:45:02;96678.47;;;13.59;77.03
7824;BME280;3957;48.61947800;9.05303100;2022-07-06T02:46:23;96673.31;;;13.58;76.87
7824;BME280;3957;48.61947800;9.05303100;2022-07-06T02:47:45;96680.13;;;13.54;77.63
7824;BME280;3957;48.61947800;9.05303100;2022-07-06T02:49:06;96673.50;;;13.50;77.51
7824;BME280;3957;48.61947800;9.05303100;2022-07-06T02:50:26;96673.94;;;13.47;79.07
7824;BME280;3957;48.61947800;9.05303100;2022-07-06T02:51:49;96675.38;;;13.49;78.91
7824;BME280;3957;48.61947800;9.05303100;2022-07-06T02:53:10;96685.72;;;13.46;79.14
7824;BME280;3957;48.61947800;9.05303100;2022-07-06T02:54:31;96686.94;;;13.43;79.06
7824;BME280;3957;48.61947800;9.05303100;2022-07-06T02:55:52;96688.63;;;13.44;78.81
7824;BME280;3957;48.61947800;9.05303100;2022-07-06T02:57:13;96680.13;;;13.54;78.31
7824;BME280;3957;48.61947800;9.05303100;2022-07-06T02:58:34;96685.09;;;13.50;78.78
7824;BME280;3957;48.61947800;9.05303100;2022-07-06T02:59:55;96685.28;;;13.49;78.04
7824;BME280;3957;48.61947800;9.05303100;2022-07-06T03:01:16;96688.19;;;13.54;78.78
7824;BME280;3957;48.61947800;9.05303100;2022-07-06T03:02:37;96684.28;;;13.50;78.24
7824;BME280;3957;48.61947800;9.05303100;2022-07-06T03:03:59;96692.13;;;13.51;79.75
7824;BME280;3957;48.61947800;9.05303100;2022-07-06T03:05:20;96692.75;;;13.47;78.63
7824;BME280;3957;48.61947800;9.05303100;2022-07-06T03:06:40;96691.50;;;13.42;80.42
7824;BME280;3957;48.61947800;9.05303100;2022-07-06T03:08:01;96693.34;;;13.42;79.42
7824;BME280;3957;48.61947800;9.05303100;2022-07-06T03:09:24;96688.19;;;13.40;80.29
7824;BME280;3957;48.61947800;9.05303100;2022-07-06T03:10:45;96689.63;;;13.36;83.44
7824;BME280;3957;48.61947800;9.05303100;2022-07-06T03:12:06;96688.63;;;13.37;81.08
7824;BME280;3957;48.61947800;9.05303100;2022-07-06T03:13:29;96694.59;;;13.39;80.14
7824;BME280;3957;48.61947800;9.05303100;2022-07-06T03:14:50;96706.41;;;13.38;80.40
7824;BME280;3957;48.61947800;9.05303100;2022-07-06T03:16:11;96693.34;;;13.42;81.34
7824;BME280;3957;48.61947800;9.05303100;2022-07-06T03:17:31;96694.19;;;13.42;80.86
7824;BME280;3957;48.61947800;9.05303100;2022-07-06T03:18:52;96698.13;;;13.40;81.36
7824;BME280;3957;48.61947800;9.05303100;2022-07-06T03:20:13;96702.88;;;13.38;81.92
7824;BME280;3957;48.61947800;9.05303100;2022-07-06T03:21:35;96703.47;;;13.33;81.36
7824;BME280;3957;48.61947800;9.05303100;2022-07-06T03:22:57;96699.75;;;13.27;82.39
7824;BME280;3957;48.61947800;9.05303100;2022-07-06T03:24:18;96700.75;;;13.26;82.85
7824;BME280;3957;48.61947800;9.05303100;2022-07-06T03:25:38;96700.16;;;13.24;83.00
7824;BME280;3957;48.61947800;9.05303100;2022-07-06T03:27:00;96698.50;;;13.23;83.49
7824;BME280;3957;48.61947800;9.05303100;2022-07-06T03:28:21;96698.91;;;13.20;83.72
7824;BME280;3957;48.61947800;9.05303100;2022-07-06T03:29:42;96699.72;;;13.21;85.00
7824;BME280;3957;48.61947800;9.05303100;2022-07-06T03:31:03;96697.03;;;13.21;84.18
7824;BME280;3957;48.61947800;9.05303100;2022-07-06T03:32:23;96698.06;;;13.20;84.09
7824;BME280;3957;48.61947800;9.05303100;2022-07-06T03:33:45;96697.47;;;13.24;83.47
7824;BME280;3957;48.61947800;9.05303100;2022-07-06T03:35:06;96692.50;;;13.28;82.98
7824;BME280;3957;48.61947800;9.05303100;2022-07-06T03:36:28;96700.16;;;13.24;83.58
7824;BME280;3957;48.61947800;9.05303100;2022-07-06T03:37:48;96698.72;;;13.22;84.78
7824;BME280;3957;48.61947800;9.05303100;2022-07-06T03:39:10;96692.91;;;13.25;84.28
7824;BME280;3957;48.61947800;9.05303100;2022-07-06T03:40:33;96694.56;;;13.26;84.17
7824;BME280;3957;48.61947800;9.05303100;2022-07-06T03:41:54;96693.34;;;13.29;83.93
7824;BME280;3957;48.61947800;9.05303100;2022-07-06T03:43:16;96696.44;;;13.19;84.01
7824;BME280;3957;48.61947800;9.05303100;2022-07-06T03:44:37;96698.72;;;13.22;83.75
7824;BME280;3957;48.61947800;9.05303100;2022-07-06T03:45:58;96692.47;;;13.21;84.02
7824;BME280;3957;48.61947800;9.05303100;2022-07-06T03:47:19;96694.78;;;13.24;83.85
7824;BME280;3957;48.61947800;9.05303100;2022-07-06T03:48:40;96691.88;;;13.19;84.42
7824;BME280;3957;48.61947800;9.05303100;2022-07-06T03:50:02;96697.25;;;13.19;84.27
7824;BME280;3957;48.61947800;9.05303100;2022-07-06T03:51:23;96701.41;;;13.22;83.58
7824;BME280;3957;48.61947800;9.05303100;2022-07-06T03:52:44;96699.94;;;13.19;84.38
7824;BME280;3957;48.61947800;9.05303100;2022-07-06T03:54:05;96704.28;;;13.20;84.09
7824;BME280;3957;48.61947800;9.05303100;2022-07-06T03:55:27;96699.94;;;13.26;84.55
7824;BME280;3957;48.61947800;9.05303100;2022-07-06T03:56:52;96703.66;;;13.25;84.10
7824;BME280;3957;48.61947800;9.05303100;2022-07-06T03:58:13;96707.59;;;13.29;83.82
7824;BME280;3957;48.61947800;9.05303100;2022-07-06T03:59:35;96700.56;;;13.28;84.83
7824;BME280;3957;48.61947800;9.05303100;2022-07-06T04:00:56;96700.13;;;13.31;83.33
7824;BME280;3957;48.61947800;9.05303100;2022-07-06T04:02:17;96703.25;;;13.35;83.67
7824;BME280;3957;48.61947800;9.05303100;2022-07-06T04:03:37;96701.41;;;13.35;84.04
7824;BME280;3957;48.61947800;9.05303100;2022-07-06T04:04:59;96697.88;;;13.35;83.51
7824;BME280;3957;48.61947800;9.05303100;2022-07-06T04:06:20;96698.91;;;13.34;84.21
7824;BME280;3957;48.61947800;9.05303100;2022-07-06T04:07:41;96705.13;;;13.34;84.05
7824;BME280;3957;48.61947800;9.05303100;2022-07-06T04:09:02;96704.28;;;13.34;84.31
7824;BME280;3957;48.61947800;9.05303100;2022-07-06T04:10:23;96708.84;;;13.26;85.27
7824;BME280;3957;48.61947800;9.05303100;2022-07-06T04:11:45;96704.69;;;13.24;85.29
7824;BME280;3957;48.61947800;9.05303100;2022-07-06T04:13:06;96704.91;;;13.29;85.09
7824;BME280;3957;48.61947800;9.05303100;2022-07-06T04:14:26;96707.59;;;13.29;85.23
7824;BME280;3957;48.61947800;9.05303100;2022-07-06T04:15:48;96704.97;;;13.42;84.23
7824;BME280;3957;48.61947800;9.05303100;2022-07-06T04:17:09;96710.53;;;13.48;84.50
7824;BME280;3957;48.61947800;9.05303100;2022-07-06T04:18:49;96707.03;;;13.54;83.27
7824;BME280;3957;48.61947800;9.05303100;2022-07-06T04:20:10;96709.44;;;13.95;81.34
7824;BME280;3957;48.61947800;9.05303100;2022-07-06T04:21:31;96704.81;;;14.36;79.28
7824;BME280;3957;48.61947800;9.05303100;2022-07-06T04:22:53;96703.44;;;14.72;76.72
7824;BME280;3957;48.61947800;9.05303100;2022-07-06T04:24:15;96706.38;;;15.03;75.02
7824;BME280;3957;48.61947800;9.05303100;2022-07-06T04:25:37;96703.50;;;15.29;73.62
7824;BME280;3957;48.61947800;9.05303100;2022-07-06T04:26:57;96706.91;;;15.18;73.37
7824;BME280;3957;48.61947800;9.05303100;2022-07-06T04:28:18;96705.16;;;15.30;73.41
7824;BME280;3957;48.61947800;9.05303100;2022-07-06T04:29:39;96709.06;;;15.35;73.02
7824;BME280;3957;48.61947800;9.05303100;2022-07-06T04:31:00;96706.59;;;15.84;71.01
7824;BME280;3957;48.61947800;9.05303100;2022-07-06T04:32:21;96704.59;;;15.97;69.74
7824;BME280;3957;48.61947800;9.05303100;2022-07-06T04:33:42;96707.78;;;16.13;69.45
7824;BME280;3957;48.61947800;9.05303100;2022-07-06T04:35:04;96700.16;;;16.77;67.25
7824;BME280;3957;48.61947800;9.05303100;2022-07-06T04:36:26;96710.53;;;17.11;65.02
7824;BME280;3957;48.61947800;9.05303100;2022-07-06T04:37:47;96707.06;;;17.22;63.41
7824;BME280;3957;48.61947800;9.05303100;2022-07-06T04:39:10;96710.63;;;17.34;62.22
7824;BME280;3957;48.61947800;9.05303100;2022-07-06T04:40:31;96714.63;;;17.32;62.31
7824;BME280;3957;48.61947800;9.05303100;2022-07-06T04:41:55;96713.22;;;17.41;62.42
7824;BME280;3957;48.61947800;9.05303100;2022-07-06T04:43:17;96721.06;;;17.73;60.94
7824;BME280;3957;48.61947800;9.05303100;2022-07-06T04:44:38;96724.28;;;18.06;60.60
7824;BME280;3957;48.61947800;9.05303100;2022-07-06T04:45:59;96727.84;;;17.76;61.60
7824;BME280;3957;48.61947800;9.05303100;2022-07-06T04:47:22;96719.59;;;17.59;61.41
7824;BME280;3957;48.61947800;9.05303100;2022-07-06T04:48:43;96731.00;;;17.91;61.43
7824;BME280;3957;48.61947800;9.05303100;2022-07-06T04:50:07;96719.56;;;18.25;59.97
7824;BME280;3957;48.61947800;9.05303100;2022-07-06T04:51:28;96723.75;;;18.32;59.25
7824;BME280;3957;48.61947800;9.05303100;2022-07-06T04:52:49;96719.88;;;18.93;57.73
7824;BME280;3957;48.61947800;9.05303100;2022-07-06T04:54:10;96721.81;;;19.09;55.83
7824;BME280;3957;48.61947800;9.05303100;2022-07-06T04:55:30;96719.63;;;19.23;55.91
7824;BME280;3957;48.61947800;9.05303100;2022-07-06T04:56:52;96721.06;;;19.43;56.37
7824;BME280;3957;48.61947800;9.05303100;2022-07-06T04:58:13;96729.56;;;19.63;56.11
7824;BME280;3957;48.61947800;9.05303100;2022-07-06T04:59:35;96725.78;;;19.47;56.22
7824;BME280;3957;48.61947800;9.05303100;2022-07-06T05:00:56;96724.78;;;19.70;56.33
7824;BME280;3957;48.61947800;9.05303100;2022-07-06T05:02:18;96719.72;;;19.91;54.91
7824;BME280;3957;48.61947800;9.05303100;2022-07-06T05:03:40;96721.38;;;20.31;53.95
7824;BME280;3957;48.61947800;9.05303100;2022-07-06T05:05:03;96722.09;;;20.04;53.72
7824;BME280;3957;48.61947800;9.05303100;2022-07-06T05:06:23;96724.56;;;20.06;53.50
7824;BME280;3957;48.61947800;9.05303100;2022-07-06T05:07:44;96727.13;;;19.96;53.57
7824;BME280;3957;48.61947800;9.05303100;2022-07-06T05:09:05;96734.50;;;19.66;54.44
7824;BME280;3957;48.61947800;9.05303100;2022-07-06T05:10:27;96737.38;;;20.28;53.84
7824;BME280;3957;48.61947800;9.05303100;2022-07-06T05:11:50;96736.19;;;21.02;53.14
7824;BME280;3957;48.61947800;9.05303100;2022-07-06T05:13:12;96738.03;;;21.23;52.56
7824;BME280;3957;48.61947800;9.05303100;2022-07-06T05:14:33;96738.41;;;21.60;51.98
7824;BME280;3957;48.61947800;9.05303100;2022-07-06T05:15:54;96736.50;;;21.92;50.76
7824;BME280;3957;48.61947800;9.05303100;2022-07-06T05:17:15;96744.91;;;21.53;50.33
7824;BME280;3957;48.61947800;9.05303100;2022-07-06T05:18:36;96745.22;;;21.89;49.65
7824;BME280;3957;48.61947800;9.05303100;2022-07-06T05:19:58;96745.00;;;21.64;49.20
7824;BME280;3957;48.61947800;9.05303100;2022-07-06T05:21:19;96744.63;;;21.87;49.60
7824;BME280;3957;48.61947800;9.05303100;2022-07-06T05:22:40;96747.59;;;22.18;49.48
7824;BME280;3957;48.61947800;9.05303100;2022-07-06T05:24:00;96749.59;;;22.28;50.00
7824;BME280;3957;48.61947800;9.05303100;2022-07-06T05:25:22;96749.88;;;21.94;48.46
7824;BME280;3957;48.61947800;9.05303100;2022-07-06T05:26:42;96742.38;;;21.79;48.96
7824;BME280;3957;48.61947800;9.05303100;2022-07-06T05:28:04;96745.31;;;21.67;49.69
7824;BME280;3957;48.61947800;9.05303100;2022-07-06T05:29:25;96737.69;;;21.69;50.08
7824;BME280;3957;48.61947800;9.05303100;2022-07-06T05:30:47;96743.06;;;21.59;50.20
7824;BME280;3957;48.61947800;9.05303100;2022-07-06T05:32:08;96752.75;;;21.77;49.24
7824;BME280;3957;48.61947800;9.05303100;2022-07-06T05:33:28;96749.44;;;22.07;49.71
7824;BME280;3957;48.61947800;9.05303100;2022-07-06T05:34:50;96750.50;;;22.01;48.68
7824;BME280;3957;48.61947800;9.05303100;2022-07-06T05:36:14;96745.69;;;20.99;51.58
7824;BME280;3957;48.61947800;9.05303100;2022-07-06T05:37:35;96747.94;;;21.35;50.94
7824;BME280;3957;48.61947800;9.05303100;2022-07-06T05:38:56;96750.88;;;20.62;51.78
7824;BME280;3957;48.61947800;9.05303100;2022-07-06T05:40:17;96753.44;;;20.90;51.10
7824;BME280;3957;48.61947800;9.05303100;2022-07-06T05:41:38;96753.16;;;21.36;50.50
7824;BME280;3957;48.61947800;9.05303100;2022-07-06T05:42:59;96749.44;;;21.48;50.84
7824;BME280;3957;48.61947800;9.05303100;2022-07-06T05:44:20;96751.72;;;22.26;50.62
7824;BME280;3957;48.61947800;9.05303100;2022-07-06T05:45:41;96751.56;;;22.38;49.26
7824;BME280;3957;48.61947800;9.05303100;2022-07-06T05:47:03;96759.94;;;21.61;50.44
7824;BME280;3957;48.61947800;9.05303100;2022-07-06T05:48:42;96745.69;;;21.27;50.16
7824;BME280;3957;48.61947800;9.05303100;2022-07-06T05:50:22;96750.22;;;21.43;50.08
7824;BME280;3957;48.61947800;9.05303100;2022-07-06T05:51:47;96751.78;;;21.94;51.45
7824;BME280;3957;48.61947800;9.05303100;2022-07-06T05:53:08;96757.31;;;22.36;49.47
7824;BME280;3957;48.61947800;9.05303100;2022-07-06T05:54:28;96753.91;;;22.24;47.63
7824;BME280;3957;48.61947800;9.05303100;2022-07-06T05:55:49;96753.59;;;22.20;49.04
7824;BME280;3957;48.61947800;9.05303100;2022-07-06T05:57:11;96755.41;;;22.90;47.25
7824;BME280;3957;48.61947800;9.05303100;2022-07-06T05:58:32;96749.09;;;22.89;47.86
7824;BME280;3957;48.61947800;9.05303100;2022-07-06T05:59:54;96749.38;;;22.02;49.01
7824;BME280;3957;48.61947800;9.05303100;2022-07-06T06:01:15;96745.47;;;21.88;49.35
7824;BME280;3957;48.61947800;9.05303100;2022-07-06T06:02:41;96752.81;;;21.05;50.31
7824;BME280;3957;48.61947800;9.05303100;2022-07-06T06:04:04;96750.44;;;21.14;51.70
7824;BME280;3957;48.61947800;9.05303100;2022-07-06T06:05:25;96750.50;;;21.19;50.19
7824;BME280;3957;48.61947800;9.05303100;2022-07-06T06:06:51;96750.00;;;21.50;50.88
7824;BME280;3957;48.61947800;9.05303100;2022-07-06T06:08:12;96752.88;;;21.60;50.23
7824;BME280;3957;48.61947800;9.05303100;2022-07-06T06:09:33;96747.88;;;22.17;50.47
7824;BME280;3957;48.61947800;9.05303100;2022-07-06T06:10:54;96750.72;;;22.00;49.03
7824;BME280;3957;48.61947800;9.05303100;2022-07-06T06:12:17;96755.78;;;22.18;48.42
7824;BME280;3957;48.61947800;9.05303100;2022-07-06T06:13:38;96758.31;;;22.68;48.69
7824;BME280;3957;48.61947800;9.05303100;2022-07-06T06:14:58;96752.09;;;22.88;47.54
7824;BME280;3957;48.61947800;9.05303100;2022-07-06T06:16:19;96759.88;;;23.17;46.55
7824;BME280;3957;48.61947800;9.05303100;2022-07-06T06:17:41;96749.59;;;23.39;45.29
7824;BME280;3957;48.61947800;9.05303100;2022-07-06T06:19:02;96761.53;;;23.28;46.11
7824;BME280;3957;48.61947800;9.05303100;2022-07-06T06:20:22;96760.78;;;23.48;45.64
7824;BME280;3957;48.61947800;9.05303100;2022-07-06T06:21:43;96753.41;;;23.38;45.75
7824;BME280;3957;48.61947800;9.05303100;2022-07-06T06:23:04;96764.03;;;23.40;45.24
7824;BME280;3957;48.61947800;9.05303100;2022-07-06T06:24:25;96763.78;;;23.52;45.43
7824;BME280;3957;48.61947800;9.05303100;2022-07-06T06:25:48;96757.59;;;23.98;43.95
7824;BME280;3957;48.61947800;9.05303100;2022-07-06T06:27:09;96767.38;;;23.78;44.57
7824;BME280;3957;48.61947800;9.05303100;2022-07-06T06:28:30;96766.28;;;23.64;45.59
7824;BME280;3957;48.61947800;9.05303100;2022-07-06T06:29:50;96765.44;;;23.53;44.03
7824;BME280;3957;48.61947800;9.05303100;2022-07-06T06:31:11;96768.25;;;23.99;44.85
7824;BME280;3957;48.61947800;9.05303100;2022-07-06T06:32:32;96767.69;;;23.97;45.27